createdAt,value
2023-02-12T00:01:51.147Z,102085.34
2023-02-12T00:04:54.447Z,102076.34
2023-02-12T00:07:56.952Z,102072.50
2023-02-12T00:10:59.506Z,102085.09
2023-02-12T00:14:03.190Z,102095.19
2023-02-12T00:17:05.803Z,102098.91
2023-02-12T00:20:09.108Z,102100.31
2023-02-12T00:23:11.618Z,102097.78
2023-02-12T00:26:17.019Z,102108.38
2023-02-12T00:29:23.428Z,102118.75
2023-02-12T00:32:25.993Z,102116.47
2023-02-12T00:35:28.413Z,102120.50
2023-02-12T00:38:31.207Z,102123.56
2023-02-12T00:41:33.602Z,102122.38
2023-02-12T00:44:36.426Z,102112.81
2023-02-12T00:47:38.908Z,102131.56
2023-02-12T00:50:44.322Z,102121.47
2023-02-12T00:53:46.764Z,102131.22
2023-02-12T00:56:49.510Z,102121.63
2023-02-12T00:59:52.029Z,102117.25
2023-02-12T01:02:55.148Z,102135.59
2023-02-12T01:05:57.925Z,102150.81
2023-02-12T01:09:02.151Z,102169.44
2023-02-12T01:12:04.669Z,102167.25
2023-02-12T01:15:07.470Z,102166.09
2023-02-12T01:18:09.867Z,102168.78
2023-02-12T01:21:17.814Z,102162.34
2023-02-12T01:24:20.261Z,102177.81
2023-02-12T01:27:22.810Z,102178.03
2023-02-12T01:30:25.293Z,102181.78
2023-02-12T01:33:27.579Z,102192.00
2023-02-12T01:36:31.433Z,102205.25
2023-02-12T01:39:34.876Z,102206.75
2023-02-12T01:42:37.340Z,102207.81
2023-02-12T01:45:42.582Z,102215.06
2023-02-12T01:48:47.487Z,102225.25
2023-02-12T01:51:53.715Z,102219.00
2023-02-12T01:54:59.227Z,102216.69
2023-02-12T01:58:01.977Z,102216.84
2023-02-12T02:01:07.341Z,102225.34
2023-02-12T02:04:14.020Z,102230.78
2023-02-12T02:07:19.628Z,102231.91
2023-02-12T02:10:22.376Z,102231.78
2023-02-12T02:13:43.548Z,102233.41
2023-02-12T02:16:55.010Z,102223.22
2023-02-12T02:20:06.376Z,102237.59
2023-02-12T02:23:11.398Z,102244.28
2023-02-12T02:27:01.820Z,102249.91
2023-02-12T02:30:22.174Z,102246.19
2023-02-12T02:33:56.547Z,102245.69
2023-02-12T02:37:09.193Z,102245.25
2023-02-12T02:40:15.736Z,102238.69
2023-02-12T02:43:26.866Z,102233.25
2023-02-12T02:46:49.878Z,102235.00
2023-02-12T02:49:58.409Z,102243.94
2023-02-12T02:53:04.355Z,102253.53
2023-02-12T02:56:08.996Z,102225.72
2023-02-12T02:59:15.702Z,102268.03
2023-02-12T03:02:24.487Z,102264.69
2023-02-12T03:05:32.896Z,102266.25
2023-02-12T03:08:39.642Z,102268.50
2023-02-12T03:11:42.589Z,102289.75
2023-02-12T03:14:49.930Z,102289.47
2023-02-12T03:17:52.467Z,102291.31
2023-02-12T03:21:05.849Z,102301.25
2023-02-12T03:24:19.993Z,102270.59
2023-02-12T03:27:33.297Z,102290.00
2023-02-12T03:30:43.547Z,102296.34
2023-02-12T03:34:16.287Z,102311.69
2023-02-12T03:37:22.728Z,102285.94
2023-02-12T03:40:48.033Z,102326.06
2023-02-12T03:43:56.797Z,102339.16
2023-02-12T03:47:09.171Z,102303.41
2023-02-12T03:50:14.801Z,102338.91
2023-02-12T03:53:17.284Z,102346.63
2023-02-12T03:56:39.775Z,102350.69
2023-02-12T03:59:42.951Z,102336.22
2023-02-12T04:02:45.882Z,102342.28
2023-02-12T04:05:48.382Z,102343.41
2023-02-12T04:08:50.890Z,102355.22
2023-02-12T04:12:08.557Z,102351.97
2023-02-12T04:15:29.183Z,102361.41
2023-02-12T04:18:45.634Z,102357.06
2023-02-12T04:22:15.662Z,102353.25
2023-02-12T04:25:49.189Z,102358.59
2023-02-12T04:29:16.352Z,102358.19
2023-02-12T04:32:22.485Z,102357.88
2023-02-12T04:35:28.681Z,102373.38
2023-02-12T04:38:40.132Z,102374.34
2023-02-12T04:41:43.012Z,102373.91
2023-02-12T04:44:45.898Z,102378.28
2023-02-12T04:47:48.323Z,102384.75
2023-02-12T04:50:50.740Z,102399.66
2023-02-12T04:53:53.197Z,102399.66
2023-02-12T04:56:55.606Z,102404.84
2023-02-12T04:59:58.070Z,102409.09
2023-02-12T05:03:00.750Z,102400.63
2023-02-12T05:06:07.769Z,102413.03
2023-02-12T05:09:16.100Z,102409.22
2023-02-12T05:12:19.378Z,102409.22
2023-02-12T05:15:22.292Z,102406.41
2023-02-12T05:18:24.595Z,102416.25
2023-02-12T05:21:27.103Z,102416.41
2023-02-12T05:24:30.911Z,102415.69
2023-02-12T05:27:33.537Z,102415.00
2023-02-12T05:30:35.959Z,102437.13
2023-02-12T05:33:38.561Z,102428.66
2023-02-12T05:36:41.688Z,102438.91
2023-02-12T05:39:44.447Z,102436.94
2023-02-12T05:42:47.248Z,102451.59
2023-02-12T05:45:50.230Z,102444.69
2023-02-12T05:48:52.929Z,102451.47
2023-02-12T05:51:55.309Z,102459.19
2023-02-12T05:54:57.989Z,102463.16
2023-02-12T05:58:00.764Z,102469.72
2023-02-12T06:01:04.255Z,102456.50
2023-02-12T06:04:08.702Z,102463.38
2023-02-12T06:07:11.222Z,102456.06
2023-02-12T06:10:13.685Z,102449.03
2023-02-12T06:13:16.043Z,102457.38
2023-02-12T06:16:25.717Z,102462.44
2023-02-12T06:19:28.436Z,102468.06
2023-02-12T06:22:31.097Z,102469.94
2023-02-12T06:25:33.742Z,102456.44
2023-02-12T06:28:36.256Z,102449.50
2023-02-12T06:31:38.993Z,102471.34
2023-02-12T06:34:41.819Z,102482.75
2023-02-12T06:37:44.241Z,102494.72
2023-02-12T06:40:46.664Z,102492.19
2023-02-12T06:43:50.225Z,102504.31
2023-02-12T06:46:52.816Z,102506.88
2023-02-12T06:49:55.124Z,102511.38
2023-02-12T06:52:59.464Z,102516.72
2023-02-12T06:56:03.717Z,102514.31
2023-02-12T06:59:06.120Z,102514.47
2023-02-12T07:02:10.862Z,102515.75
2023-02-12T07:05:13.645Z,102504.75
2023-02-12T07:08:16.507Z,102518.84
2023-02-12T07:11:19.706Z,102525.00
2023-02-12T07:14:22.382Z,102518.22
2023-02-12T07:17:24.746Z,102520.47
2023-02-12T07:20:27.054Z,102537.81
2023-02-12T07:23:29.710Z,102531.75
2023-02-12T07:26:32.027Z,102533.59
2023-02-12T07:29:34.865Z,102530.19
2023-02-12T07:32:37.274Z,102537.81
2023-02-12T07:35:39.725Z,102529.06
2023-02-12T07:38:42.757Z,102530.38
2023-02-12T07:41:45.050Z,102536.56
2023-02-12T07:44:47.402Z,102532.44
2023-02-12T07:47:50.173Z,102548.59
2023-02-12T07:50:52.835Z,102534.84
2023-02-12T07:53:55.625Z,102541.44
2023-02-12T07:56:58.557Z,102548.91
2023-02-12T08:00:00.995Z,102552.34
2023-02-12T08:03:03.237Z,102542.19
2023-02-12T08:06:14.046Z,102557.00
2023-02-12T08:09:19.533Z,102554.38
2023-02-12T08:12:22.342Z,102550.66
2023-02-12T08:15:24.860Z,102548.41
2023-02-12T08:18:27.163Z,102545.28
2023-02-12T08:21:29.665Z,102562.38
2023-02-12T08:24:32.468Z,102556.16
2023-02-12T08:27:35.176Z,102570.38
2023-02-12T08:30:37.536Z,102563.13
2023-02-12T08:33:40.123Z,102562.22
2023-02-12T08:36:42.778Z,102552.25
2023-02-12T08:39:48.361Z,102552.19
2023-02-12T08:42:51.177Z,102557.00
2023-02-12T08:45:54.032Z,102558.03
2023-02-12T08:49:02.640Z,102543.25
2023-02-12T08:52:05.368Z,102551.06
2023-02-12T08:55:08.758Z,102548.25
2023-02-12T08:58:11.577Z,102560.31
2023-02-12T09:01:24.659Z,102560.22
2023-02-12T09:04:28.739Z,102544.50
2023-02-12T09:07:30.908Z,102554.13
2023-02-12T09:10:33.469Z,102538.59
2023-02-12T09:13:37.784Z,102559.66
2023-02-12T09:16:41.656Z,102566.25
2023-02-12T09:19:46.381Z,102573.16
2023-02-12T09:22:50.233Z,102568.84
2023-02-12T09:25:52.889Z,102575.75
2023-02-12T09:28:57.398Z,102578.78
2023-02-12T09:32:03.063Z,102573.97
2023-02-12T09:35:06.836Z,102575.31
2023-02-12T09:38:10.686Z,102564.06
2023-02-12T09:41:22.430Z,102575.50
2023-02-12T09:44:30.775Z,102572.50
2023-02-12T09:47:33.084Z,102576.63
2023-02-12T09:50:38.613Z,102578.94
2023-02-12T09:53:45.972Z,102570.28
2023-02-12T09:56:57.757Z,102588.09
2023-02-12T10:00:24.050Z,102589.25
2023-02-12T10:03:26.882Z,102575.84
2023-02-12T10:06:32.015Z,102570.56
2023-02-12T10:10:01.865Z,102570.28
2023-02-12T10:13:10.007Z,102582.56
2023-02-12T10:16:18.491Z,102572.63
2023-02-12T10:19:38.712Z,102571.59
2023-02-12T10:26:26.042Z,102564.22
2023-02-12T10:29:32.721Z,102560.84
2023-02-12T10:32:36.508Z,102559.50
2023-02-12T10:35:45.089Z,102555.78
2023-02-12T10:38:52.073Z,102536.16
2023-02-12T10:42:07.162Z,102557.28
2023-02-12T10:45:15.796Z,102553.94
2023-02-12T10:48:24.231Z,102532.22
2023-02-12T10:51:57.631Z,102554.28
2023-02-12T10:55:00.039Z,102538.44
2023-02-12T10:58:04.245Z,102540.91
2023-02-12T11:01:18.847Z,102538.06
2023-02-12T11:04:27.024Z,102549.38
2023-02-12T11:07:33.516Z,102553.59
2023-02-12T11:10:41.601Z,102555.06
2023-02-12T11:14:06.554Z,102553.06
2023-02-12T11:17:39.656Z,102560.97
2023-02-12T11:20:50.827Z,102543.66
2023-02-12T11:23:53.599Z,102531.50
2023-02-12T11:27:18.361Z,102547.19
2023-02-12T11:30:21.365Z,102551.06
2023-02-12T11:33:30.701Z,102543.41
2023-02-12T11:36:35.966Z,102540.56
2023-02-12T11:39:39.711Z,102539.88
2023-02-12T11:42:43.629Z,102539.53
2023-02-12T11:45:48.079Z,102528.31
2023-02-12T11:48:51.123Z,102524.03
2023-02-12T11:51:53.712Z,102526.59
2023-02-12T11:55:00.948Z,102522.03
2023-02-12T11:58:13.910Z,102520.91
2023-02-12T12:01:29.288Z,102528.44
2023-02-12T12:04:34.406Z,102515.66
2023-02-12T12:07:37.791Z,102524.47
2023-02-12T12:11:14.271Z,102525.63
2023-02-12T12:15:00.118Z,102525.31
2023-02-12T12:19:00.088Z,102521.81
2023-02-12T12:22:40.783Z,102521.59
2023-02-12T12:25:48.283Z,102491.97
2023-02-12T12:29:22.831Z,102511.78
2023-02-12T12:32:26.969Z,102503.09
2023-02-12T12:35:46.710Z,102497.22
2023-02-12T12:39:04.614Z,102501.44
2023-02-12T12:42:27.287Z,102500.72
2023-02-12T12:45:59.564Z,102499.56
2023-02-12T12:49:14.915Z,102507.31
2023-02-12T12:52:42.097Z,102505.28
2023-02-12T12:56:03.068Z,102502.25
2023-02-12T12:59:21.994Z,102472.94
2023-02-12T13:03:01.797Z,102496.03
2023-02-12T13:06:55.514Z,102476.16
2023-02-12T13:10:03.931Z,102488.63
2023-02-12T13:13:15.437Z,102488.94
2023-02-12T13:16:26.699Z,102483.75
2023-02-12T13:19:37.033Z,102480.19
2023-02-12T13:22:59.313Z,102475.84
2023-02-12T13:26:14.307Z,102479.38
2023-02-12T13:29:28.711Z,102469.06
2023-02-12T13:32:31.608Z,102474.00
2023-02-12T13:35:35.922Z,102472.63
2023-02-12T13:38:46.906Z,102458.94
2023-02-12T13:41:58.275Z,102456.47
2023-02-12T13:45:46.169Z,102445.75
2023-02-12T13:48:51.558Z,102450.94
2023-02-12T13:52:18.239Z,102443.72
2023-02-12T13:56:01.951Z,102442.34
2023-02-12T13:59:04.551Z,102445.88
2023-02-12T14:02:25.637Z,102437.16
2023-02-12T14:05:32.306Z,102438.47
2023-02-12T14:08:40.693Z,102435.06
2023-02-12T14:11:54.178Z,102440.84
2023-02-12T14:15:09.365Z,102439.31
2023-02-12T14:18:28.359Z,102437.75
2023-02-12T14:21:30.796Z,102438.97
2023-02-12T14:24:39.277Z,102443.00
2023-02-12T14:27:51.724Z,102432.25
2023-02-12T14:31:19.151Z,102435.25
2023-02-12T14:34:21.786Z,102438.97
2023-02-12T14:37:37.935Z,102446.72
2023-02-12T14:40:54.353Z,102441.19
2023-02-12T14:44:27.436Z,102454.28
2023-02-12T14:47:29.694Z,102456.47
2023-02-12T14:50:42.424Z,102451.44
2023-02-12T14:53:46.478Z,102464.06
2023-02-12T14:56:49.250Z,102460.84
2023-02-12T14:59:53.782Z,102453.47
2023-02-12T15:03:02.872Z,102429.41
2023-02-12T15:06:11.112Z,102454.13
2023-02-12T15:09:22.049Z,102438.78
2023-02-12T15:12:36.863Z,102439.97
2023-02-12T15:15:51.785Z,102444.72
2023-02-12T15:18:59.268Z,102437.81
2023-02-12T15:22:02.064Z,102431.06
2023-02-12T15:25:29.429Z,102428.16
2023-02-12T15:28:36.551Z,102418.75
2023-02-12T15:31:39.098Z,102427.50
2023-02-12T15:34:43.113Z,102431.56
2023-02-12T15:37:48.174Z,102431.88
2023-02-12T15:40:59.201Z,102428.38
2023-02-12T15:44:20.319Z,102425.50
2023-02-12T15:47:26.361Z,102431.22
2023-02-12T15:50:29.895Z,102406.66
2023-02-12T15:53:32.360Z,102430.56
2023-02-12T15:56:36.488Z,102435.28
2023-02-12T15:59:40.217Z,102425.50
2023-02-12T16:02:42.702Z,102427.88
2023-02-12T16:05:44.953Z,102434.63
2023-02-12T16:08:50.893Z,102420.97
2023-02-12T16:11:53.412Z,102435.28
2023-02-12T16:14:59.249Z,102426.19
2023-02-12T16:18:04.324Z,102422.50
2023-02-12T16:21:18.479Z,102418.47
2023-02-12T16:24:35.968Z,102420.81
2023-02-12T16:27:38.648Z,102429.03
2023-02-12T16:30:43.271Z,102411.25
2023-02-12T16:33:51.459Z,102410.22
2023-02-12T16:36:54.032Z,102417.66
2023-02-12T16:39:56.304Z,102405.00
2023-02-12T16:43:16.004Z,102404.63
2023-02-12T16:46:19.172Z,102388.50
2023-02-12T16:49:24.444Z,102404.66
2023-02-12T16:52:40.295Z,102391.16
2023-02-12T16:55:42.788Z,102409.16
2023-02-12T16:58:47.146Z,102398.72
2023-02-12T17:02:13.190Z,102412.81
2023-02-12T17:05:17.658Z,102407.63
2023-02-12T17:08:23.265Z,102411.63
2023-02-12T17:11:27.408Z,102402.53
2023-02-12T17:14:30.257Z,102413.47
2023-02-12T17:17:32.930Z,102406.41
2023-02-12T17:20:35.378Z,102378.69
2023-02-12T17:23:38.918Z,102408.63
2023-02-12T17:26:42.655Z,102416.84
2023-02-12T17:29:45.828Z,102408.97
2023-02-12T17:32:51.188Z,102392.66
2023-02-12T17:35:54.013Z,102402.72
2023-02-12T17:38:56.417Z,102401.50
2023-02-12T17:42:00.340Z,102402.47
2023-02-12T17:45:03.203Z,102415.19
2023-02-12T17:48:06.123Z,102409.13
2023-02-12T17:51:11.640Z,102404.25
2023-02-12T17:54:16.031Z,102407.06
2023-02-12T17:57:18.682Z,102408.03
2023-02-12T18:00:22.386Z,102409.63
2023-02-12T18:03:24.802Z,102402.97
2023-02-12T18:06:29.796Z,102398.94
2023-02-12T18:09:33.182Z,102395.25
2023-02-12T18:12:35.704Z,102403.13
2023-02-12T18:15:40.889Z,102395.25
2023-02-12T18:18:43.490Z,102395.41
2023-02-12T18:21:47.255Z,102324.09
2023-02-12T18:24:49.990Z,102380.16
2023-02-12T18:27:53.578Z,102391.53
2023-02-12T18:30:57.924Z,102392.47
2023-02-12T18:34:00.574Z,102388.47
2023-02-12T18:37:03.186Z,102377.13
2023-02-12T18:40:06.137Z,102382.31
2023-02-12T18:43:08.566Z,102382.88
2023-02-12T18:46:16.282Z,102385.69
2023-02-12T18:49:18.722Z,102380.22
2023-02-12T18:52:20.995Z,102383.47
2023-02-12T18:55:23.452Z,102365.63
2023-02-12T18:58:25.834Z,102363.53
2023-02-12T19:01:29.015Z,102367.88
2023-02-12T19:04:31.565Z,102358.47
2023-02-12T19:07:33.924Z,102366.88
2023-02-12T19:10:39.798Z,102356.34
2023-02-12T19:13:42.317Z,102375.53
2023-02-12T19:16:47.782Z,102357.00
2023-02-12T19:19:51.274Z,102368.19
2023-02-12T19:22:53.831Z,102366.16
2023-02-12T19:25:56.138Z,102368.84
2023-02-12T19:28:59.096Z,102363.69
2023-02-12T19:32:01.579Z,102370.56
2023-02-12T19:35:04.586Z,102354.09
2023-02-12T19:38:06.877Z,102368.97
2023-02-12T19:41:21.026Z,102354.47
2023-02-12T19:44:24.898Z,102348.75
2023-02-12T19:47:27.456Z,102346.22
2023-02-12T19:50:29.733Z,102344.28
2023-02-12T19:53:32.446Z,102337.31
2023-02-12T19:56:35.660Z,102329.50
2023-02-12T19:59:38.119Z,102324.75
2023-02-12T20:02:43.531Z,102323.84
2023-02-12T20:05:52.047Z,102324.66
2023-02-12T20:08:55.092Z,102322.78
2023-02-12T20:11:57.485Z,102321.78
2023-02-12T20:15:02.775Z,102325.97
2023-02-12T20:18:06.208Z,102324.50
2023-02-12T20:21:13.860Z,102296.69
2023-02-12T20:24:16.426Z,102323.44
2023-02-12T20:27:18.860Z,102314.69
2023-02-12T20:30:21.540Z,102323.81
2023-02-12T20:33:23.921Z,102250.03
2023-02-12T20:36:27.175Z,102315.31
2023-02-12T20:39:29.807Z,102310.59
2023-02-12T20:42:32.554Z,102319.81
2023-02-12T20:45:35.738Z,102303.28
2023-02-12T20:48:38.478Z,102325.38
2023-02-12T20:51:41.237Z,102329.06
2023-02-12T20:54:43.685Z,102325.03
2023-02-12T20:57:46.142Z,102326.38
2023-02-12T21:00:48.587Z,102326.59
2023-02-12T21:03:53.099Z,102318.44
2023-02-12T21:06:55.458Z,102316.94
2023-02-12T21:09:58.186Z,102309.31
2023-02-12T21:13:00.784Z,102326.06
2023-02-12T21:16:14.662Z,102334.78
2023-02-12T21:19:18.052Z,102322.16
2023-02-12T21:22:21.474Z,102317.03
2023-02-12T21:25:24.092Z,102309.00
2023-02-12T21:28:26.794Z,102299.69
2023-02-12T21:31:35.379Z,102304.09
2023-02-12T21:34:38.199Z,102305.63
2023-02-12T21:37:40.776Z,102324.50
2023-02-12T21:40:43.227Z,102306.75
2023-02-12T21:43:48.363Z,102323.47
2023-02-12T21:46:50.893Z,102319.94
2023-02-12T21:49:53.519Z,102319.47
2023-02-12T21:52:56.216Z,102308.94
2023-02-12T21:56:03.453Z,102331.88
2023-02-12T21:59:06.787Z,102311.41
2023-02-12T22:02:10.215Z,102322.81
2023-02-12T22:05:12.996Z,102302.81
2023-02-12T22:08:15.412Z,102331.06
2023-02-12T22:11:18.122Z,102325.50
2023-02-12T22:14:21.749Z,102331.41
2023-02-12T22:17:24.350Z,102330.53
2023-02-12T22:20:26.731Z,102335.09
2023-02-12T22:23:29.203Z,102321.97
2023-02-12T22:26:33.095Z,102315.16
2023-02-12T22:29:35.650Z,102323.88
2023-02-12T22:32:38.343Z,102331.81
2023-02-12T22:35:40.825Z,102319.78
2023-02-12T22:38:43.171Z,102327.75
2023-02-12T22:41:46.371Z,102325.81
2023-02-12T22:44:48.877Z,102323.88
2023-02-12T22:47:51.280Z,102305.81
2023-02-12T22:50:53.762Z,102322.84
2023-02-12T22:53:57.154Z,102323.88
2023-02-12T22:56:59.709Z,102307.69
2023-02-12T23:00:02.449Z,102329.91
2023-02-12T23:03:05.027Z,102315.91
2023-02-12T23:06:10.639Z,102330.44
2023-02-12T23:09:15.294Z,102305.22
2023-02-12T23:12:17.626Z,102323.53
2023-02-12T23:15:20.099Z,102313.66
2023-02-12T23:18:23.754Z,102318.81
2023-02-12T23:21:27.834Z,102317.88
2023-02-12T23:24:30.206Z,102310.91
2023-02-12T23:27:32.527Z,102292.06
2023-02-12T23:30:34.965Z,102294.56
2023-02-12T23:33:37.546Z,102278.94
2023-02-12T23:36:40.067Z,102304.84
2023-02-12T23:39:42.542Z,102293.09
2023-02-12T23:42:46.729Z,102300.81
2023-02-12T23:45:49.383Z,102300.31
2023-02-12T23:48:52.112Z,102298.56
2023-02-12T23:51:54.900Z,102284.28
2023-02-12T23:54:57.835Z,102293.38
2023-02-12T23:58:03.056Z,102285.06
